createdAt,value
2018-07-12T00:01:04.655Z,1.97
2018-07-12T00:03:32.015Z,2.30
2018-07-12T00:05:59.282Z,2.33
2018-07-12T00:08:26.387Z,3.23
2018-07-12T00:10:53.642Z,4.20
2018-07-12T00:13:20.767Z,3.10
2018-07-12T00:15:47.870Z,2.00
2018-07-12T00:18:14.982Z,1.90
2018-07-12T00:23:08.992Z,2.03
2018-07-12T00:25:36.094Z,2.30
2018-07-12T00:28:03.210Z,2.30
2018-07-12T00:30:30.304Z,2.10
2018-07-12T00:32:57.451Z,2.20
2018-07-12T00:35:24.544Z,2.10
2018-07-12T00:37:51.690Z,1.90
2018-07-12T00:40:18.951Z,2.23
2018-07-12T00:42:46.047Z,2.00
2018-07-12T00:45:13.154Z,2.57
2018-07-12T00:47:40.539Z,2.07
2018-07-12T00:50:07.662Z,2.90
2018-07-12T00:52:35.234Z,2.43
2018-07-12T00:59:56.386Z,2.40
2018-07-12T01:02:23.759Z,2.20
2018-07-12T01:04:50.850Z,3.43
2018-07-12T01:07:17.984Z,2.23
2018-07-12T01:09:45.109Z,2.37
2018-07-12T01:12:12.200Z,2.37
2018-07-12T01:14:39.312Z,6.70
2018-07-12T01:17:06.426Z,2.90
2018-07-12T01:19:33.541Z,2.50
2018-07-12T01:22:00.652Z,2.93
2018-07-12T01:24:27.746Z,2.60
2018-07-12T01:26:54.877Z,2.27
2018-07-12T01:46:30.330Z,2.20
2018-07-12T01:48:57.446Z,2.60
2018-07-12T01:51:24.571Z,2.37
2018-07-12T01:53:51.675Z,2.30
2018-07-12T01:56:18.770Z,2.90
2018-07-12T01:58:45.922Z,3.10
2018-07-12T02:01:13.031Z,2.80
2018-07-12T02:03:40.137Z,2.90
2018-07-12T02:06:07.251Z,2.70
2018-07-12T02:08:34.362Z,3.17
2018-07-12T02:11:01.491Z,2.30
2018-07-12T02:15:55.746Z,2.60
2018-07-12T02:20:49.782Z,4.20
2018-07-12T02:23:16.890Z,2.87
2018-07-12T02:25:43.994Z,2.30
2018-07-12T02:28:11.105Z,2.23
2018-07-12T02:30:38.212Z,2.50
2018-07-12T02:33:05.331Z,2.60
2018-07-12T02:40:26.308Z,2.83
2018-07-12T02:42:53.411Z,2.50
2018-07-12T02:45:20.551Z,2.10
2018-07-12T02:47:47.650Z,2.60
2018-07-12T02:50:14.759Z,2.63
2018-07-12T02:55:08.763Z,6.60
2018-07-12T02:57:35.862Z,2.60
2018-07-12T03:04:56.767Z,3.00
2018-07-12T03:09:50.803Z,2.95
2018-07-12T03:19:38.866Z,2.67
2018-07-12T03:22:05.974Z,2.80
2018-07-12T03:24:33.070Z,3.07
2018-07-12T03:29:27.066Z,3.00
2018-07-12T03:31:54.174Z,2.83
2018-07-12T03:34:21.294Z,3.50
2018-07-12T03:36:48.406Z,2.97
2018-07-12T03:44:09.350Z,2.77
2018-07-12T03:46:36.536Z,2.97
2018-07-12T03:49:03.893Z,5.97
2018-07-12T03:51:31.011Z,3.93
2018-07-12T03:56:25.015Z,3.20
2018-07-12T04:01:19.023Z,3.50
2018-07-12T04:03:46.130Z,2.93
2018-07-12T04:06:13.236Z,3.20
2018-07-12T04:08:40.369Z,3.27
2018-07-12T04:11:07.475Z,4.77
2018-07-12T04:13:34.578Z,3.00
2018-07-12T04:16:01.692Z,3.73
2018-07-12T04:18:28.798Z,2.70
2018-07-12T04:20:55.922Z,3.23
2018-07-12T04:23:23.027Z,3.60
2018-07-12T04:25:50.377Z,2.97
2018-07-12T04:28:17.474Z,5.50
2018-07-12T04:30:44.590Z,5.27
2018-07-12T04:33:11.687Z,3.80
2018-07-12T04:35:38.782Z,3.40
2018-07-12T04:38:05.880Z,3.77
2018-07-12T04:40:32.979Z,3.43
2018-07-12T04:43:00.088Z,3.30
2018-07-12T04:45:27.195Z,4.93
2018-07-12T04:47:54.302Z,3.10
2018-07-12T04:50:21.406Z,4.63
2018-07-12T04:57:42.278Z,3.23
2018-07-12T05:00:09.383Z,4.97
2018-07-12T05:02:36.482Z,3.63
2018-07-12T05:05:03.604Z,4.10
2018-07-12T05:07:30.698Z,9.43
2018-07-12T05:09:57.799Z,3.70
2018-07-12T05:12:24.915Z,3.97
2018-07-12T05:14:52.010Z,5.77
2018-07-12T05:17:19.123Z,3.17
2018-07-12T05:19:46.230Z,3.60
2018-07-12T05:22:13.328Z,3.83
2018-07-12T05:24:40.431Z,6.03
2018-07-12T05:27:07.535Z,5.20
2018-07-12T05:29:34.643Z,9.07
2018-07-12T05:32:02.007Z,4.40
2018-07-12T05:34:29.141Z,4.60
2018-07-12T05:36:58.548Z,8.77
2018-07-12T05:39:26.575Z,6.70
2018-07-12T05:41:54.598Z,6.90
2018-07-12T05:46:50.359Z,5.20
2018-07-12T05:49:18.514Z,5.47
2018-07-12T05:54:15.044Z,7.20
2018-07-12T05:56:43.066Z,9.80
2018-07-12T05:59:11.101Z,7.40
2018-07-12T06:01:50.413Z,7.03
2018-07-12T06:04:18.439Z,9.47
2018-07-12T06:06:46.471Z,10.57
2018-07-12T06:09:14.959Z,8.37
2018-07-12T06:11:42.987Z,9.27
2018-07-12T06:14:11.019Z,10.47
2018-07-12T06:21:34.402Z,10.33
2018-07-12T06:24:02.438Z,9.73
2018-07-12T06:28:57.846Z,12.20
2018-07-12T06:31:25.899Z,14.03
2018-07-12T06:33:53.939Z,14.90
2018-07-12T06:36:22.146Z,14.17
2018-07-12T06:38:50.179Z,15.93
2018-07-12T06:41:18.215Z,18.55
2018-07-12T06:43:46.257Z,19.27
2018-07-12T06:46:14.310Z,20.90
2018-07-12T06:48:42.318Z,20.43
2018-07-12T06:51:10.354Z,23.90
2018-07-12T06:56:05.769Z,26.00
2018-07-12T07:03:28.510Z,29.53
2018-07-12T07:08:23.899Z,31.17
2018-07-12T07:10:51.935Z,25.10
2018-07-12T07:13:19.954Z,22.57
2018-07-12T07:15:47.770Z,23.77
2018-07-12T07:18:15.807Z,22.57
2018-07-12T07:20:44.075Z,19.30
2018-07-12T07:23:12.106Z,21.90
2018-07-12T07:25:40.328Z,20.10
2018-07-12T07:28:08.330Z,19.97
2018-07-12T07:30:36.371Z,19.73
2018-07-12T07:33:04.395Z,20.47
2018-07-12T07:35:32.420Z,22.23
2018-07-12T07:38:00.451Z,19.33
2018-07-12T07:40:28.475Z,15.17
2018-07-12T07:42:56.331Z,14.07
2018-07-12T07:45:24.350Z,14.43
2018-07-12T07:47:52.379Z,13.80
2018-07-12T07:50:20.398Z,13.87
2018-07-12T07:52:48.422Z,14.17
2018-07-12T07:55:16.438Z,13.60
2018-07-12T07:57:44.466Z,12.30
2018-07-12T08:00:12.539Z,13.37
2018-07-12T08:02:40.566Z,11.97
2018-07-12T08:05:08.380Z,14.00
2018-07-12T08:07:36.431Z,13.30
2018-07-12T08:19:53.930Z,13.73
2018-07-12T08:22:21.962Z,14.20
2018-07-12T08:27:17.354Z,15.03
2018-07-12T08:29:45.370Z,15.33
2018-07-12T08:32:13.401Z,12.97
2018-07-12T08:34:41.432Z,13.30
2018-07-12T08:37:09.446Z,12.93
2018-07-12T08:39:37.467Z,13.57
2018-07-12T08:42:05.525Z,13.87
2018-07-12T08:44:33.680Z,14.77
2018-07-12T08:47:01.711Z,13.05
2018-07-12T08:49:29.746Z,11.87
2018-07-12T08:51:57.782Z,13.13
2018-07-12T08:54:25.804Z,10.45
2018-07-12T09:01:48.546Z,10.20
2018-07-12T09:04:16.574Z,10.10
2018-07-12T09:06:44.619Z,11.60
2018-07-12T09:09:12.656Z,10.93
2018-07-12T09:11:40.463Z,10.67
2018-07-12T09:14:08.477Z,9.23
2018-07-12T09:16:36.507Z,11.50
2018-07-12T09:21:31.882Z,9.90
2018-07-12T09:23:59.906Z,10.10
2018-07-12T09:26:27.918Z,10.53
2018-07-12T09:28:55.999Z,11.30
2018-07-12T09:31:23.986Z,12.87
2018-07-12T09:33:52.012Z,10.70
2018-07-12T09:38:52.855Z,9.03
2018-07-12T10:11:21.636Z,5.20
2018-07-12T10:13:55.048Z,7.10
2018-07-12T10:16:28.685Z,5.97
2018-07-12T10:18:56.707Z,5.97
2018-07-12T11:10:32.210Z,6.10
2018-07-12T11:15:33.248Z,5.85
2018-07-12T11:18:01.271Z,5.37
2018-07-12T11:20:29.302Z,4.70
2018-07-12T11:32:46.790Z,5.22
2018-07-12T11:35:14.810Z,4.83
2018-07-12T11:37:42.838Z,4.97
2018-07-12T11:40:10.910Z,4.83
2018-07-12T11:45:06.331Z,5.17
2018-07-12T11:47:34.358Z,4.30
2018-07-12T11:50:02.391Z,4.47
2018-07-12T11:54:57.782Z,4.80
2018-07-12T11:59:53.183Z,4.63
2018-07-12T12:02:21.213Z,5.10
2018-07-12T12:36:46.152Z,4.95
2018-07-12T12:39:14.183Z,3.90
2018-07-12T12:41:42.214Z,3.75
2018-07-12T12:44:10.243Z,5.67
2018-07-12T12:54:00.383Z,3.40
2018-07-12T12:56:28.430Z,2.80
2018-07-12T12:58:56.478Z,2.33
2018-07-12T13:01:24.499Z,2.53
2018-07-12T13:03:52.522Z,2.45
2018-07-12T13:06:20.723Z,2.80
2018-07-12T13:08:48.747Z,2.25
2018-07-12T13:11:16.762Z,2.55
2018-07-12T13:13:45.091Z,6.35
2018-07-12T13:16:13.118Z,2.55
2018-07-12T13:18:41.138Z,2.00
2018-07-12T13:21:09.175Z,2.65
2018-07-12T13:23:37.191Z,1.87
2018-07-12T13:26:05.630Z,2.20
2018-07-12T13:28:33.574Z,1.98
2018-07-12T13:55:35.306Z,1.70
2018-07-12T13:58:03.354Z,1.98
2018-07-12T14:02:58.730Z,1.80
2018-07-12T14:05:26.759Z,2.20
2018-07-12T14:10:21.939Z,1.60
2018-07-12T14:17:44.483Z,1.45
2018-07-12T14:25:07.265Z,1.35
2018-07-12T14:27:35.287Z,1.27
2018-07-12T14:34:58.049Z,1.35
2018-07-12T14:37:26.102Z,2.52
2018-07-12T14:39:54.134Z,1.47
2018-07-12T14:42:22.146Z,1.45
2018-07-12T14:47:17.546Z,1.40
2018-07-12T15:19:13.807Z,1.20
2018-07-12T16:40:18.746Z,1.62
2018-07-12T16:59:58.522Z,1.15
2018-07-12T17:09:48.718Z,1.30
2018-07-12T17:12:16.758Z,1.75
2018-07-12T17:14:44.778Z,1.07
2018-07-12T17:17:12.814Z,1.52
2018-07-12T17:19:40.884Z,2.07
2018-07-12T17:22:08.867Z,4.17
2018-07-12T17:24:36.890Z,1.20
2018-07-12T17:27:04.927Z,1.80
2018-07-12T17:29:32.963Z,1.45
2018-07-12T17:32:00.993Z,1.55
2018-07-12T17:34:29.014Z,3.42
2018-07-12T17:36:57.035Z,3.22
2018-07-12T17:39:25.054Z,1.55
2018-07-12T17:41:53.086Z,2.25
2018-07-12T17:44:21.114Z,1.92
2018-07-12T17:46:49.178Z,3.72
2018-07-12T17:49:17.219Z,1.30
2018-07-12T17:51:45.255Z,1.82
2018-07-12T17:54:13.287Z,3.08
2018-07-12T17:56:41.326Z,3.77
2018-07-12T17:59:09.338Z,6.37
2018-07-12T18:01:37.367Z,2.42
2018-07-12T18:04:05.430Z,2.42
2018-07-12T18:06:33.455Z,1.67
2018-07-12T18:09:01.474Z,1.90
2018-07-12T18:11:29.498Z,1.60
2018-07-12T18:13:57.522Z,2.17
2018-07-12T18:16:25.583Z,1.98
2018-07-12T18:18:53.478Z,1.50
2018-07-12T18:21:21.498Z,1.70
2018-07-12T18:23:49.519Z,1.47
2018-07-12T18:26:17.630Z,1.10
2018-07-12T18:28:45.650Z,1.65
2018-07-12T18:31:13.687Z,1.82
2018-07-12T18:33:41.710Z,3.27
2018-07-12T18:36:09.742Z,2.37
2018-07-12T18:38:37.770Z,2.45
2018-07-12T18:41:05.585Z,2.63
2018-07-12T18:43:33.617Z,2.37
2018-07-12T18:46:01.636Z,2.97
2018-07-12T19:10:35.869Z,3.97
2018-07-12T19:20:26.082Z,3.75
2018-07-12T19:22:54.118Z,2.43
2018-07-12T19:37:39.398Z,4.60
2018-07-12T19:40:07.522Z,3.37
2018-07-12T19:42:35.494Z,5.70
2018-07-12T19:45:03.550Z,4.00
2018-07-12T19:47:31.579Z,3.70
2018-07-12T19:57:21.726Z,2.70
2018-07-12T19:59:49.762Z,4.27
2018-07-12T20:02:17.786Z,3.47
2018-07-12T20:04:45.813Z,2.40
2018-07-12T20:07:13.862Z,4.67
2018-07-12T20:09:41.698Z,3.77
2018-07-12T20:12:09.734Z,2.87
2018-07-12T20:14:37.754Z,5.90
2018-07-12T20:17:05.808Z,2.23
2018-07-12T20:19:33.914Z,5.57
2018-07-12T20:22:01.926Z,2.47
2018-07-12T20:24:29.965Z,2.83
2018-07-12T20:26:58.015Z,4.20
2018-07-12T20:29:26.055Z,2.40
2018-07-12T20:31:53.930Z,3.63
2018-07-12T20:34:21.986Z,5.77
2018-07-12T20:36:50.117Z,2.27
2018-07-12T20:39:18.179Z,4.00
2018-07-12T20:41:46.219Z,3.13
2018-07-12T20:44:14.244Z,4.47
2018-07-12T20:46:42.278Z,4.80
2018-07-12T20:49:10.363Z,4.13
2018-07-12T20:51:38.430Z,2.90
2018-07-12T20:54:06.439Z,4.60
2018-07-12T20:56:34.523Z,3.53
2018-07-12T20:59:02.552Z,4.10
2018-07-12T21:01:30.587Z,4.97
2018-07-12T21:03:58.610Z,4.23
2018-07-12T21:06:26.682Z,3.33
2018-07-12T21:08:54.714Z,3.07
2018-07-12T21:11:22.742Z,3.67
2018-07-12T21:13:50.782Z,3.70
2018-07-12T21:16:18.846Z,4.10
2018-07-12T21:18:47.058Z,2.63
2018-07-12T21:21:15.126Z,3.47
2018-07-12T21:23:43.243Z,2.90
2018-07-12T21:26:11.228Z,3.60
2018-07-12T21:28:39.322Z,6.10
2018-07-12T21:31:07.424Z,4.60
2018-07-12T21:33:35.677Z,4.15
2018-07-12T21:36:03.546Z,7.50
2018-07-12T21:38:31.568Z,3.43
2018-07-12T21:40:59.628Z,3.20
2018-07-12T21:43:27.684Z,3.60
2018-07-12T21:45:55.759Z,4.63
2018-07-12T21:48:23.843Z,9.00
2018-07-12T21:50:51.866Z,4.70
2018-07-12T21:53:19.879Z,4.13
2018-07-12T21:55:47.950Z,4.53
2018-07-12T21:58:16.030Z,3.70
2018-07-12T22:00:44.174Z,5.20
2018-07-12T22:03:12.299Z,3.57
2018-07-12T22:05:40.141Z,4.77
2018-07-12T22:08:11.447Z,5.03
2018-07-12T22:10:39.488Z,5.43
2018-07-12T22:13:07.555Z,4.97
2018-07-12T22:15:35.613Z,4.53
2018-07-12T22:18:03.663Z,4.87
2018-07-12T22:20:31.827Z,6.60
2018-07-12T22:23:00.055Z,8.57
2018-07-12T22:25:28.108Z,4.27
2018-07-12T22:27:56.183Z,4.43
2018-07-12T22:30:24.522Z,3.60
2018-07-12T22:32:52.574Z,3.70
2018-07-12T22:35:20.756Z,4.93
2018-07-12T22:37:48.806Z,6.47
2018-07-12T22:40:16.829Z,5.27
2018-07-12T22:42:45.024Z,5.83
2018-07-12T22:45:13.085Z,10.93
2018-07-12T22:47:41.144Z,10.03
2018-07-12T22:50:09.185Z,10.37
2018-07-12T22:52:37.198Z,9.43
2018-07-12T22:55:05.222Z,14.13
2018-07-12T22:57:33.310Z,14.90
2018-07-12T23:00:01.138Z,13.63
2018-07-12T23:02:29.178Z,17.03
2018-07-12T23:04:57.222Z,10.33
2018-07-12T23:07:25.266Z,10.47
2018-07-12T23:09:53.295Z,9.97
2018-07-12T23:12:21.323Z,11.87
2018-07-12T23:14:49.366Z,8.83
2018-07-12T23:17:17.386Z,8.67
2018-07-12T23:19:46.198Z,8.27
2018-07-12T23:22:14.246Z,7.00
2018-07-12T23:24:42.278Z,6.97
2018-07-12T23:27:10.295Z,5.80
2018-07-12T23:29:38.122Z,6.40
2018-07-12T23:32:06.182Z,5.13
2018-07-12T23:34:34.220Z,8.23
2018-07-12T23:37:02.259Z,5.23
2018-07-12T23:39:30.311Z,7.50
2018-07-12T23:41:58.332Z,5.83
2018-07-12T23:44:26.137Z,6.03
2018-07-12T23:46:54.198Z,5.43
2018-07-12T23:49:22.329Z,6.17
2018-07-12T23:51:50.359Z,7.10
2018-07-12T23:54:18.426Z,4.97
2018-07-12T23:56:46.470Z,5.20
2018-07-12T23:59:14.775Z,6.10
